Time;durP1;ratioP1;P1;durP2;ratioP2;P2;SDS_P1;SDS_P2;PMS_P1;PMS_P2;Temp;Humidity;BMP_temperature;BMP_pressure;BME280_temperature;BME280_humidity;BME280_pressure;Samples;Min_cycle;Max_cycle;Signal;HPM_P1;HPM_P2
2021/10/08 00:01:07;;;;;;;9.38;7.10;;;16.30;94.10;;;;;;4981894;28;20047;-61
2021/10/08 00:03:34;;;;;;;15.07;8.05;;;16.30;94.10;;;;;;4960011;28;20047;-60
2021/10/08 00:06:01;;;;;;;13.95;6.97;;;16.30;94.10;;;;;;4983121;28;20043;-60
2021/10/08 00:08:28;;;;;;;11.63;8.32;;;16.20;94.10;;;;;;4965903;28;20283;-59
2021/10/08 00:10:55;;;;;;;13.38;7.78;;;16.30;94.10;;;;;;4963947;28;20105;-60
2021/10/08 00:13:21;;;;;;;13.55;8.43;;;16.30;94.10;;;;;;4980344;28;20057;-60
2021/10/08 00:15:48;;;;;;;12.32;7.15;;;16.30;94.10;;;;;;4983403;28;20039;-60
2021/10/08 00:18:15;;;;;;;11.63;7.57;;;16.30;94.00;;;;;;4980037;28;20509;-61
2021/10/08 00:20:42;;;;;;;10.52;7.22;;;16.30;94.00;;;;;;4989022;28;20129;-61
2021/10/08 00:23:08;;;;;;;11.23;6.75;;;16.30;94.00;;;;;;4983422;28;20074;-60
2021/10/08 00:25:39;;;;;;;12.55;7.25;;;16.30;94.00;;;;;;4982721;28;20082;-60
2021/10/08 00:28:06;;;;;;;10.15;7.07;;;16.30;94.00;;;;;;4633067;28;9999718;-61
2021/10/08 00:30:33;;;;;;;16.45;7.63;;;16.30;94.00;;;;;;4977765;28;20522;-61
2021/10/08 00:33:00;;;;;;;11.70;8.60;;;16.30;94.00;;;;;;4984466;28;20556;-60
2021/10/08 00:35:27;;;;;;;15.30;7.78;;;16.30;94.00;;;;;;4978348;28;20050;-60
2021/10/08 00:37:54;;;;;;;10.88;6.57;;;16.40;94.00;;;;;;4977208;28;20710;-60
2021/10/08 00:40:21;;;;;;;11.52;7.60;;;16.30;94.20;;;;;;4984670;28;20054;-61
2021/10/08 00:42:48;;;;;;;12.65;7.03;;;16.40;93.90;;;;;;4964847;28;20279;-60
2021/10/08 00:45:15;;;;;;;11.02;6.68;;;16.40;93.90;;;;;;4975677;28;20058;-61
2021/10/08 00:47:42;;;;;;;12.68;7.05;;;16.30;93.90;;;;;;4978851;28;20051;-61
2021/10/08 00:50:09;;;;;;;11.85;7.20;;;16.30;93.90;;;;;;4984324;28;20053;-61
2021/10/08 00:52:36;;;;;;;12.85;6.72;;;16.30;94.00;;;;;;4979176;28;20050;-60
2021/10/08 00:55:04;;;;;;;12.15;7.60;;;16.30;94.00;;;;;;4977791;28;20133;-61
2021/10/08 00:57:31;;;;;;;13.07;6.90;;;16.30;93.90;;;;;;4981291;28;20050;-59
2021/10/08 00:59:58;;;;;;;13.05;6.90;;;16.30;93.90;;;;;;4964121;28;20055;-60
2021/10/08 01:02:25;;;;;;;14.85;6.95;;;16.30;93.90;;;;;;4974610;28;20046;-61
2021/10/08 01:04:56;;;;;;;10.82;6.45;;;16.40;93.90;;;;;;4979445;28;20078;-61
2021/10/08 01:07:24;;;;;;;10.57;6.82;;;16.30;93.80;;;;;;4981692;28;20050;-61
2021/10/08 01:09:51;;;;;;;14.88;7.13;;;16.30;93.80;;;;;;4961019;28;20046;-60
2021/10/08 01:12:18;;;;;;;11.02;6.43;;;16.30;93.80;;;;;;4977880;28;20105;-62
2021/10/08 01:14:44;;;;;;;8.98;6.28;;;16.40;93.80;;;;;;4984475;28;20042;-60
2021/10/08 01:17:21;;;;;;;9.27;5.60;;;16.40;93.80;;;;;;4980198;28;20082;-60
2021/10/08 01:19:48;;;;;;;11.00;5.82;;;16.30;93.80;;;;;;4973053;28;20178;-60
2021/10/08 01:22:14;;;;;;;11.55;6.28;;;16.30;93.80;;;;;;4961982;28;20124;-60
2021/10/08 01:24:41;;;;;;;9.57;5.85;;;16.30;93.80;;;;;;4975032;28;20050;-61
2021/10/08 01:27:08;;;;;;;11.45;6.22;;;16.30;93.80;;;;;;4984045;28;20133;-60
2021/10/08 01:29:50;;;;;;;8.68;6.22;;;16.30;93.90;;;;;;4982847;28;20232;-60
2021/10/08 01:32:17;;;;;;;9.43;6.10;;;16.30;94.00;;;;;;4968957;28;20046;-61
2021/10/08 01:34:44;;;;;;;11.18;6.82;;;16.30;93.90;;;;;;4959936;28;20085;-59
2021/10/08 01:37:11;;;;;;;10.02;5.95;;;16.30;93.90;;;;;;4983208;28;20146;-59
2021/10/08 01:39:38;;;;;;;13.35;7.15;;;16.30;93.90;;;;;;4980828;28;20089;-61
2021/10/08 01:42:05;;;;;;;9.68;6.07;;;16.30;94.00;;;;;;4975947;28;20466;-59
2021/10/08 01:44:32;;;;;;;7.32;5.25;;;16.30;94.00;;;;;;4978376;28;20059;-62
2021/10/08 01:46:59;;;;;;;9.55;6.18;;;16.30;94.00;;;;;;4981927;28;20098;-60
2021/10/08 01:49:26;;;;;;;6.90;4.68;;;16.30;93.90;;;;;;4980477;28;20313;-63
2021/10/08 01:51:52;;;;;;;8.65;5.15;;;16.30;93.90;;;;;;4979877;28;20045;-60
2021/10/08 01:54:22;;;;;;;9.93;4.65;;;16.30;93.90;;;;;;4981866;28;20058;-61
2021/10/08 01:56:48;;;;;;;7.53;4.93;;;16.30;93.90;;;;;;4980620;28;20081;-60
2021/10/08 01:59:15;;;;;;;6.75;4.55;;;16.30;93.90;;;;;;4982192;28;20047;-61
2021/10/08 02:01:42;;;;;;;6.47;4.10;;;16.30;93.90;;;;;;4961531;28;20097;-60
2021/10/08 02:04:09;;;;;;;6.78;4.43;;;16.30;93.90;;;;;;4959787;28;20079;-59
2021/10/08 02:06:36;;;;;;;8.43;4.22;;;16.30;94.00;;;;;;4982867;28;20082;-60
2021/10/08 02:09:03;;;;;;;8.25;3.90;;;16.30;94.00;;;;;;4981103;28;20273;-59
2021/10/08 02:11:30;;;;;;;9.60;4.82;;;16.30;94.00;;;;;;4974381;28;20055;-60
2021/10/08 02:13:57;;;;;;;5.82;3.97;;;16.30;94.00;;;;;;4966299;28;20125;-61
2021/10/08 02:16:23;;;;;;;6.95;3.80;;;16.30;94.00;;;;;;4987866;28;20058;-60
2021/10/08 02:18:51;;;;;;;8.10;4.88;;;16.30;94.00;;;;;;4979233;28;20054;-60
2021/10/08 02:21:19;;;;;;;9.57;4.80;;;16.20;94.00;;;;;;4990921;28;20121;-60
2021/10/08 02:23:46;;;;;;;8.10;4.13;;;16.20;94.00;;;;;;4962238;28;20054;-59
2021/10/08 02:26:13;;;;;;;11.80;4.72;;;16.20;94.00;;;;;;4981719;28;20050;-60
2021/10/08 02:28:39;;;;;;;7.43;4.40;;;16.20;94.10;;;;;;4966948;28;20046;-63
2021/10/08 02:31:06;;;;;;;11.02;5.38;;;16.20;94.10;;;;;;4983946;28;20070;-60
2021/10/08 02:33:34;;;;;;;8.75;4.30;;;16.20;94.20;;;;;;4962097;28;20517;-60
2021/10/08 02:36:02;;;;;;;12.95;4.38;;;16.10;94.10;;;;;;4966885;28;20074;-61
2021/10/08 02:38:29;;;;;;;8.07;4.35;;;16.10;94.10;;;;;;4984312;28;20093;-60
2021/10/08 02:40:55;;;;;;;7.60;4.30;;;16.10;94.10;;;;;;4964584;28;20466;-60
2021/10/08 02:43:22;;;;;;;15.88;5.00;;;16.00;94.10;;;;;;4981380;28;20082;-59
2021/10/08 02:45:49;;;;;;;9.27;3.00;;;16.00;94.20;;;;;;4985142;28;20078;-60
2021/10/08 02:48:16;;;;;;;7.55;3.20;;;15.90;94.10;;;;;;4964350;28;20140;-59
2021/10/08 02:50:43;;;;;;;5.90;3.30;;;15.90;94.20;;;;;;4980299;28;20046;-60
2021/10/08 02:53:09;;;;;;;5.60;3.65;;;15.90;94.20;;;;;;4983099;28;20104;-59
2021/10/08 02:55:36;;;;;;;11.38;4.03;;;16.00;94.20;;;;;;4982481;28;20407;-59
2021/10/08 02:58:03;;;;;;;11.90;3.65;;;16.00;94.20;;;;;;4987298;28;20146;-64
2021/10/08 03:00:30;;;;;;;6.28;2.90;;;16.00;94.20;;;;;;4982515;28;20046;-61
2021/10/08 03:02:57;;;;;;;6.35;3.25;;;16.00;94.20;;;;;;4976478;28;20078;-60
2021/10/08 03:05:24;;;;;;;7.43;2.17;;;15.90;94.10;;;;;;4968178;28;20105;-61
2021/10/08 03:07:51;;;;;;;8.43;2.50;;;15.90;94.10;;;;;;4985421;28;20086;-60
2021/10/08 03:10:19;;;;;;;10.23;2.42;;;15.90;94.10;;;;;;4977350;28;20531;-59
2021/10/08 03:12:46;;;;;;;7.75;2.70;;;15.80;94.20;;;;;;4963679;28;20349;-59
2021/10/08 03:15:13;;;;;;;3.22;2.20;;;15.90;94.20;;;;;;4982075;28;20058;-59
2021/10/08 03:17:40;;;;;;;5.28;2.53;;;15.90;94.20;;;;;;4980952;28;20193;-60
2021/10/08 03:20:07;;;;;;;8.05;2.80;;;15.90;94.10;;;;;;4978031;28;20148;-60
2021/10/08 03:22:34;;;;;;;3.25;2.38;;;15.90;94.10;;;;;;4982673;28;20457;-59
2021/10/08 03:25:01;;;;;;;4.47;2.28;;;15.80;94.10;;;;;;4972233;28;20086;-60
2021/10/08 03:27:28;;;;;;;8.50;2.35;;;15.70;94.40;;;;;;4979715;28;20050;-59
2021/10/08 03:29:55;;;;;;;3.63;2.13;;;15.70;94.20;;;;;;4974165;28;20086;-60
2021/10/08 03:32:22;;;;;;;5.25;2.45;;;15.80;94.20;;;;;;4983584;28;20097;-60
2021/10/08 03:34:48;;;;;;;3.92;1.85;;;15.80;94.20;;;;;;4980076;28;20498;-59
2021/10/08 03:37:18;;;;;;;4.15;2.38;;;15.80;94.20;;;;;;4961091;28;20113;-60
2021/10/08 03:39:48;;;;;;;7.40;2.05;;;15.80;94.10;;;;;;4984287;28;20085;-60
2021/10/08 03:42:18;;;;;;;3.60;2.00;;;15.80;94.10;;;;;;4983475;28;20085;-60
2021/10/08 03:44:53;;;;;;;7.90;2.08;;;15.80;94.10;;;;;;4959480;28;20042;-60
2021/10/08 03:47:34;;;;;;;7.60;1.83;;;15.80;94.10;;;;;;4961811;28;20070;-61
2021/10/08 03:50:01;;;;;;;5.93;2.08;;;15.90;94.00;;;;;;4968366;28;20137;-61
2021/10/08 03:52:28;;;;;;;2.65;1.60;;;15.80;94.00;;;;;;4988478;28;20104;-61
2021/10/08 03:54:55;;;;;;;2.67;1.60;;;15.90;94.00;;;;;;4958781;28;20055;-60
2021/10/08 03:57:21;;;;;;;4.15;1.80;;;15.90;94.00;;;;;;4981615;28;20058;-60
2021/10/08 03:59:48;;;;;;;4.22;1.73;;;15.90;94.00;;;;;;4984525;28;20050;-60
2021/10/08 04:02:15;;;;;;;7.10;1.83;;;15.90;94.00;;;;;;4970058;28;20177;-60
2021/10/08 04:04:42;;;;;;;4.60;1.60;;;15.90;94.00;;;;;;4959310;28;20493;-61
2021/10/08 04:07:09;;;;;;;3.88;1.83;;;15.90;94.00;;;;;;4984319;28;20093;-59
2021/10/08 04:09:36;;;;;;;3.10;1.70;;;15.90;94.30;;;;;;4980500;28;20073;-60
2021/10/08 04:12:03;;;;;;;3.42;1.77;;;15.90;94.00;;;;;;4978616;28;20093;-59
2021/10/08 04:14:31;;;;;;;4.78;1.92;;;15.90;93.90;;;;;;4980579;28;20089;-60
2021/10/08 04:16:58;;;;;;;3.58;1.60;;;15.90;93.90;;;;;;4984247;28;20561;-61
2021/10/08 04:19:25;;;;;;;3.75;1.52;;;15.80;94.00;;;;;;4974539;28;20051;-61
2021/10/08 04:21:51;;;;;;;6.35;2.17;;;15.90;94.10;;;;;;4982170;28;20050;-61
2021/10/08 04:24:18;;;;;;;4.68;1.35;;;15.90;94.00;;;;;;4979426;28;20596;-60
2021/10/08 04:26:45;;;;;;;4.63;1.73;;;15.80;94.00;;;;;;4985813;28;20058;-60
2021/10/08 04:29:12;;;;;;;2.25;1.67;;;15.80;94.00;;;;;;4976758;28;20564;-60
2021/10/08 04:31:38;;;;;;;2.17;1.25;;;15.90;94.00;;;;;;4982504;28;20046;-60
2021/10/08 04:34:05;;;;;;;3.03;1.50;;;15.90;94.10;;;;;;4983800;28;20050;-60
2021/10/08 04:36:32;;;;;;;6.15;1.63;;;15.90;94.10;;;;;;4960684;28;20408;-60
2021/10/08 04:38:59;;;;;;;6.57;1.40;;;15.90;94.10;;;;;;4981532;28;20047;-60
2021/10/08 04:41:26;;;;;;;6.70;1.85;;;15.80;94.10;;;;;;4987883;28;20116;-61
2021/10/08 04:43:52;;;;;;;8.23;3.60;;;15.80;94.10;;;;;;4961685;28;20100;-60
2021/10/08 04:46:19;;;;;;;4.78;2.15;;;15.80;94.10;;;;;;4974964;28;20137;-59
2021/10/08 04:48:46;;;;;;;5.28;1.95;;;15.80;94.10;;;;;;4966156;28;20125;-60
2021/10/08 04:51:13;;;;;;;5.97;2.35;;;15.80;94.10;;;;;;4977439;28;20089;-59
2021/10/08 04:53:39;;;;;;;6.32;2.65;;;15.80;94.10;;;;;;4966239;28;20074;-59
2021/10/08 04:56:06;;;;;;;6.32;2.40;;;15.80;94.20;;;;;;4980471;28;20513;-59
2021/10/08 04:58:33;;;;;;;4.38;2.00;;;15.80;94.20;;;;;;4958237;28;20050;-60
2021/10/08 05:01:00;;;;;;;6.38;2.10;;;15.80;94.20;;;;;;4980830;28;20051;-60
2021/10/08 05:03:27;;;;;;;4.43;2.30;;;15.70;94.30;;;;;;4982459;28;20039;-60
2021/10/08 05:05:53;;;;;;;6.90;2.38;;;15.70;94.10;;;;;;4971580;28;20106;-60
2021/10/08 05:08:20;;;;;;;4.97;2.28;;;15.70;94.10;;;;;;4963424;28;20077;-59
2021/10/08 05:10:48;;;;;;;2.83;1.75;;;15.70;94.10;;;;;;4977765;28;20104;-60
2021/10/08 05:13:15;;;;;;;5.68;2.17;;;15.70;94.10;;;;;;4961445;28;20078;-60
2021/10/08 05:15:41;;;;;;;6.00;2.15;;;15.70;94.10;;;;;;4981900;28;20592;-61
2021/10/08 05:18:08;;;;;;;4.90;1.98;;;15.70;94.10;;;;;;4976676;28;20101;-59
2021/10/08 05:20:35;;;;;;;2.92;1.55;;;15.70;94.10;;;;;;4977129;28;20059;-60
2021/10/08 05:23:02;;;;;;;2.83;2.10;;;15.70;94.10;;;;;;4973432;28;20074;-60
2021/10/08 05:25:29;;;;;;;6.88;2.20;;;15.70;94.10;;;;;;4970824;28;20047;-60
2021/10/08 05:27:56;;;;;;;5.07;1.77;;;15.70;94.10;;;;;;4982855;28;20043;-60
2021/10/08 05:30:24;;;;;;;6.18;2.40;;;15.70;94.10;;;;;;4984265;28;20050;-59
2021/10/08 05:32:50;;;;;;;4.80;2.20;;;15.70;94.10;;;;;;4959065;28;20038;-59
2021/10/08 05:35:17;;;;;;;6.25;2.15;;;15.70;94.10;;;;;;4972435;28;20121;-59
2021/10/08 05:37:44;;;;;;;5.00;2.58;;;15.70;94.10;;;;;;4977785;28;20073;-60
2021/10/08 05:40:11;;;;;;;4.18;1.95;;;15.70;94.10;;;;;;4972968;28;20498;-60
2021/10/08 05:42:38;;;;;;;4.10;1.90;;;15.70;94.10;;;;;;4931300;28;20042;-61
2021/10/08 05:45:05;;;;;;;6.00;2.38;;;15.70;94.10;;;;;;4951384;28;20085;-60
2021/10/08 05:47:32;;;;;;;4.32;2.42;;;15.70;94.10;;;;;;4978025;28;20116;-60
2021/10/08 05:49:58;;;;;;;4.88;2.13;;;15.70;94.20;;;;;;4975782;28;20084;-60
2021/10/08 05:52:25;;;;;;;3.55;2.40;;;15.70;94.20;;;;;;4966353;28;20042;-59
2021/10/08 05:54:52;;;;;;;5.57;2.47;;;15.70;94.10;;;;;;4977380;28;20502;-60
2021/10/08 05:57:19;;;;;;;5.15;2.80;;;15.70;94.10;;;;;;4963519;28;20516;-60
2021/10/08 05:59:45;;;;;;;5.53;2.67;;;15.70;94.10;;;;;;4978764;28;20078;-59
2021/10/08 06:02:12;;;;;;;7.00;3.03;;;15.60;94.10;;;;;;4972990;28;20074;-60
2021/10/08 06:04:39;;;;;;;6.57;2.25;;;15.70;94.20;;;;;;4969025;28;20109;-60
2021/10/08 06:07:07;;;;;;;6.63;2.58;;;15.70;94.20;;;;;;4981135;28;20490;-59
2021/10/08 06:09:34;;;;;;;7.72;2.55;;;15.60;94.10;;;;;;4963187;28;20047;-60
2021/10/08 06:12:01;;;;;;;6.28;2.28;;;15.70;94.10;;;;;;4979464;28;20501;-61
2021/10/08 06:14:28;;;;;;;7.72;3.25;;;15.70;94.20;;;;;;4973611;28;20074;-60
2021/10/08 06:16:55;;;;;;;9.57;2.65;;;15.70;94.20;;;;;;4970709;28;20134;-60
2021/10/08 06:19:22;;;;;;;4.60;2.40;;;15.70;94.20;;;;;;4967752;28;20081;-60
2021/10/08 06:21:48;;;;;;;5.90;2.40;;;15.70;94.20;;;;;;4980240;28;20533;-60
2021/10/08 06:24:15;;;;;;;8.45;3.08;;;15.70;94.20;;;;;;4964758;28;20090;-60
2021/10/08 06:26:42;;;;;;;6.75;3.22;;;15.70;94.20;;;;;;4973747;28;20047;-60
2021/10/08 06:29:09;;;;;;;8.73;3.58;;;15.60;94.20;;;;;;4970413;28;20050;-59
2021/10/08 06:31:36;;;;;;;8.05;3.55;;;15.60;94.20;;;;;;4982369;28;20129;-59
2021/10/08 06:34:03;;;;;;;7.05;3.83;;;15.60;94.30;;;;;;4966893;28;20046;-59
2021/10/08 06:36:31;;;;;;;11.88;4.60;;;15.60;94.40;;;;;;4975999;28;20090;-59
2021/10/08 06:38:58;;;;;;;12.35;3.83;;;15.60;94.40;;;;;;4979812;28;20494;-59
2021/10/08 06:41:24;;;;;;;10.60;5.03;;;15.50;94.40;;;;;;4970546;28;20539;-59
2021/10/08 06:43:51;;;;;;;9.82;4.88;;;15.50;94.30;;;;;;4978730;28;20078;-59
2021/10/08 06:46:20;;;;;;;9.25;4.03;;;15.50;94.30;;;;;;4966682;28;20089;-62
2021/10/08 06:48:47;;;;;;;10.38;5.95;;;15.50;94.20;;;;;;4963583;28;20053;-59
2021/10/08 06:51:14;;;;;;;8.80;5.13;;;15.60;94.30;;;;;;4973726;28;20137;-60
2021/10/08 06:53:41;;;;;;;14.90;6.32;;;15.50;94.30;;;;;;4977531;28;20046;-59
2021/10/08 06:56:08;;;;;;;9.18;4.40;;;15.50;94.30;;;;;;4969487;28;20105;-61
2021/10/08 06:58:35;;;;;;;7.50;4.30;;;15.50;94.30;;;;;;4977974;28;20581;-59
2021/10/08 07:01:02;;;;;;;12.73;4.60;;;15.50;94.30;;;;;;4973558;28;20133;-62
2021/10/08 07:03:29;;;;;;;14.38;4.25;;;15.50;94.30;;;;;;4977998;28;20097;-60
2021/10/08 07:05:56;;;;;;;9.98;4.72;;;15.50;94.40;;;;;;4976273;28;20054;-60
2021/10/08 07:08:22;;;;;;;9.57;4.55;;;15.50;94.40;;;;;;4952116;28;20113;-59
2021/10/08 07:10:49;;;;;;;9.88;4.38;;;15.50;94.40;;;;;;4975994;28;20051;-59
2021/10/08 07:13:16;;;;;;;12.60;5.57;;;15.50;94.40;;;;;;4967383;28;20559;-59
2021/10/08 07:15:43;;;;;;;12.05;4.65;;;15.60;94.40;;;;;;4968807;28;20510;-58
2021/10/08 07:18:14;;;;;;;10.35;4.63;;;15.60;94.50;;;;;;4984162;28;20093;-58
2021/10/08 07:20:41;;;;;;;11.35;4.85;;;15.60;94.40;;;;;;4968586;28;20085;-58
2021/10/08 07:23:07;;;;;;;9.60;4.88;;;15.60;94.50;;;;;;4955438;28;20153;-59
2021/10/08 07:25:34;;;;;;;9.55;4.35;;;15.70;94.50;;;;;;4967601;28;20050;-59
2021/10/08 07:28:01;;;;;;;11.57;5.10;;;15.60;94.50;;;;;;4979292;28;20054;-58
2021/10/08 07:30:29;;;;;;;8.88;4.50;;;15.60;94.50;;;;;;4975861;28;20055;-59
2021/10/08 07:32:55;;;;;;;8.98;4.28;;;15.60;94.70;;;;;;4977935;28;20172;-58
2021/10/08 07:35:22;;;;;;;13.02;5.28;;;15.60;94.50;;;;;;4975022;28;20145;-59
2021/10/08 07:37:49;;;;;;;9.35;4.32;;;15.60;94.50;;;;;;4979480;28;20432;-59
2021/10/08 07:40:16;;;;;;;7.78;4.45;;;15.70;94.50;;;;;;4979703;28;20516;-58
2021/10/08 07:42:43;;;;;;;9.88;4.18;;;15.70;94.40;;;;;;4975119;28;20050;-58
2021/10/08 07:45:10;;;;;;;9.75;4.78;;;15.70;94.40;;;;;;4962756;28;20074;-57
2021/10/08 07:47:37;;;;;;;9.82;4.78;;;15.80;94.30;;;;;;4985260;28;20053;-58
2021/10/08 07:50:05;;;;;;;11.88;4.88;;;15.90;94.30;;;;;;4979315;28;20077;-58
2021/10/08 07:52:32;;;;;;;9.38;4.78;;;15.90;94.30;;;;;;4975965;28;20082;-59
2021/10/08 07:54:59;;;;;;;9.73;5.18;;;15.90;94.20;;;;;;4957312;28;20585;-65
2021/10/08 07:57:26;;;;;;;15.65;7.65;;;15.90;94.20;;;;;;4973639;28;20038;-58
2021/10/08 07:59:53;;;;;;;11.85;5.63;;;16.00;94.30;;;;;;4962389;28;20055;-59
2021/10/08 08:02:21;;;;;;;7.60;4.57;;;16.00;94.30;;;;;;4979699;28;20129;-59
2021/10/08 08:04:49;;;;;;;9.32;5.30;;;16.00;94.30;;;;;;4974533;28;20090;-59
2021/10/08 08:07:15;;;;;;;10.38;5.55;;;16.00;94.30;;;;;;4978344;28;20073;-58
2021/10/08 08:09:42;;;;;;;11.00;5.30;;;16.00;94.30;;;;;;4980068;28;20073;-58
2021/10/08 08:12:09;;;;;;;11.05;5.45;;;16.00;94.30;;;;;;4976290;28;20117;-58
2021/10/08 08:14:36;;;;;;;12.77;5.90;;;16.00;94.10;;;;;;4975964;28;20047;-58
2021/10/08 08:17:03;;;;;;;11.18;5.10;;;16.10;94.00;;;;;;4979283;28;20138;-58
2021/10/08 08:19:29;;;;;;;10.23;4.78;;;16.10;94.00;;;;;;4978580;28;20116;-59
2021/10/08 08:21:56;;;;;;;11.35;5.75;;;16.10;94.00;;;;;;4985941;28;20050;-59
2021/10/08 08:24:23;;;;;;;8.88;4.78;;;16.20;94.00;;;;;;4981603;28;20314;-59
2021/10/08 08:26:50;;;;;;;8.85;5.30;;;16.20;94.10;;;;;;4982024;28;20093;-59
2021/10/08 08:29:16;;;;;;;8.93;4.22;;;16.30;94.10;;;;;;4976655;28;20054;-59
2021/10/08 08:31:43;;;;;;;11.60;4.40;;;16.40;94.00;;;;;;4979997;28;20167;-59
2021/10/08 08:34:10;;;;;;;8.57;4.80;;;16.40;93.80;;;;;;4986092;28;20324;-59
2021/10/08 08:36:37;;;;;;;8.30;4.30;;;16.50;93.80;;;;;;4979775;28;20081;-62
2021/10/08 08:39:07;;;;;;;6.60;4.00;;;16.50;93.60;;;;;;4975596;28;20130;-60
2021/10/08 08:41:35;;;;;;;5.60;4.03;;;16.40;93.30;;;;;;4967199;28;20078;-57
2021/10/08 08:44:02;;;;;;;6.25;3.25;;;16.40;93.40;;;;;;4976876;28;20046;-59
2021/10/08 08:46:29;;;;;;;8.70;3.63;;;16.50;93.40;;;;;;4986172;28;20504;-62
2021/10/08 08:48:56;;;;;;;10.02;5.28;;;16.50;93.40;;;;;;4975559;28;20063;-59
2021/10/08 08:51:25;;;;;;;6.40;3.95;;;16.60;93.40;;;;;;4980020;28;20120;-59
2021/10/08 08:53:53;;;;;;;8.68;3.47;;;16.60;93.40;;;;;;4974817;28;20533;-59
2021/10/08 08:56:20;;;;;;;5.70;3.65;;;16.60;93.30;;;;;;4975089;28;20070;-59
2021/10/08 08:58:47;;;;;;;7.00;4.30;;;16.70;93.30;;;;;;4981387;28;20054;-59
2021/10/08 09:01:14;;;;;;;9.85;4.85;;;16.70;93.30;;;;;;4982364;28;20085;-59
2021/10/08 09:03:59;;;;;;;7.13;3.88;;;16.70;93.00;;;;;;4978404;28;20045;-58
2021/10/08 09:06:34;;;;;;;9.88;4.30;;;16.70;92.70;;;;;;4984412;28;20104;-59
2021/10/08 09:09:14;;;;;;;8.30;4.40;;;16.70;93.00;;;;;;4978943;28;20046;-59
2021/10/08 09:11:41;;;;;;;8.10;4.22;;;16.80;92.80;;;;;;4976666;28;20157;-59
2021/10/08 09:14:17;;;;;;;10.65;4.63;;;16.80;92.90;;;;;;4977534;28;20047;-59
2021/10/08 09:17:03;;;;;;;10.45;4.55;;;16.90;93.00;;;;;;4976776;28;20494;-60
2021/10/08 09:20:02;;;;;;;8.90;4.68;;;16.90;92.90;;;;;;4980675;28;20089;-58
2021/10/08 09:22:32;;;;;;;7.57;4.30;;;16.90;92.70;;;;;;4971250;28;20055;-59
2021/10/08 09:25:20;;;;;;;8.40;4.45;;;16.90;92.90;;;;;;4977192;28;20050;-59
2021/10/08 09:27:49;;;;;;;5.13;3.78;;;17.00;92.40;;;;;;4982478;28;20071;-58
2021/10/08 09:30:15;;;;;;;5.53;3.53;;;16.90;92.70;;;;;;4979635;28;20081;-60
2021/10/08 09:32:45;;;;;;;8.65;3.95;;;17.00;92.50;;;;;;4974849;28;20081;-58
2021/10/08 09:35:16;;;;;;;6.43;3.95;;;16.90;92.60;;;;;;4979192;28;20101;-58
2021/10/08 09:37:44;;;;;;;8.80;4.03;;;17.00;92.60;;;;;;4974698;28;20411;-58
2021/10/08 09:40:29;;;;;;;8.20;4.47;;;17.00;92.70;;;;;;4979057;28;20054;-61
2021/10/08 09:43:07;;;;;;;6.07;3.80;;;17.00;92.30;;;;;;4625447;28;9999862;-59
2021/10/08 09:45:47;;;;;;;8.32;3.92;;;17.10;92.30;;;;;;4967693;28;20073;-59
2021/10/08 09:48:14;;;;;;;6.72;4.30;;;17.10;92.80;;;;;;4974126;28;20046;-59
2021/10/08 09:51:23;;;;;;;5.72;3.97;;;17.20;92.40;;;;;;4978292;28;20078;-58
2021/10/08 09:53:49;;;;;;;7.05;3.38;;;17.10;91.80;;;;;;4941105;28;20042;-58
2021/10/08 09:56:35;;;;;;;8.07;3.38;;;17.10;92.20;;;;;;4966690;28;20593;-58
2021/10/08 09:59:03;;;;;;;11.82;2.58;;;17.20;91.60;;;;;;4976168;28;20494;-59
2021/10/08 10:01:34;;;;;;;6.15;3.30;;;17.20;91.90;;;;;;4977293;28;20082;-59
2021/10/08 10:04:02;;;;;;;13.75;3.55;;;17.30;92.00;;;;;;4982321;28;20051;-59
2021/10/08 10:06:29;;;;;;;5.45;2.85;;;17.40;92.10;;;;;;4979761;28;20104;-59
2021/10/08 10:08:56;;;;;;;8.95;3.13;;;17.60;92.20;;;;;;4972241;28;20066;-59
2021/10/08 10:11:24;;;;;;;5.13;3.30;;;17.60;91.80;;;;;;4979206;28;20051;-59
2021/10/08 10:13:55;;;;;;;8.00;3.95;;;17.70;91.90;;;;;;4981807;28;20110;-58
2021/10/08 10:16:22;;;;;;;4.95;3.42;;;17.80;91.90;;;;;;4960235;28;20053;-60
2021/10/08 10:18:51;;;;;;;5.70;2.97;;;18.00;91.70;;;;;;4975078;28;20328;-59
2021/10/08 10:21:29;;;;;;;5.07;2.83;;;18.00;91.70;;;;;;4979204;28;20454;-58
2021/10/08 10:24:01;;;;;;;4.82;3.10;;;18.00;91.30;;;;;;4979787;28;20082;-59
2021/10/08 10:26:30;;;;;;;4.47;2.63;;;18.10;91.40;;;;;;4977471;28;20117;-59
2021/10/08 10:28:59;;;;;;;7.00;2.47;;;18.00;91.20;;;;;;4975893;28;20043;-59
2021/10/08 10:31:26;;;;;;;4.93;2.30;;;18.10;91.50;;;;;;4974252;28;20129;-59
2021/10/08 10:33:58;;;;;;;6.25;2.50;;;18.10;91.20;;;;;;4979098;28;20070;-59
2021/10/08 10:36:26;;;;;;;3.63;2.00;;;18.10;91.10;;;;;;4984855;28;20047;-59
2021/10/08 10:39:13;;;;;;;6.88;1.70;;;18.10;91.10;;;;;;4980521;28;20129;-59
2021/10/08 10:41:40;;;;;;;8.80;2.10;;;18.10;90.10;;;;;;4984427;28;20046;-59
2021/10/08 10:44:31;;;;;;;9.77;1.75;;;18.10;90.90;;;;;;4979602;28;20042;-59
2021/10/08 10:47:28;;;;;;;8.52;1.98;;;18.10;90.40;;;;;;4980459;28;20046;-58
2021/10/08 10:50:18;;;;;;;7.05;1.52;;;18.20;89.90;;;;;;4979344;28;20117;-59
2021/10/08 10:52:48;;;;;;;1.52;1.17;;;18.20;89.50;;;;;;4981823;28;20050;-57
2021/10/08 10:55:15;;;;;;;7.22;1.98;;;18.20;90.50;;;;;;4977812;28;20101;-58
2021/10/08 10:58:16;;;;;;;6.63;1.65;;;18.20;90.70;;;;;;4983257;28;20051;-58
2021/10/08 11:00:45;;;;;;;2.30;1.50;;;18.30;90.20;;;;;;4984341;28;20569;-59
2021/10/08 11:03:16;;;;;;;2.97;1.67;;;18.30;90.70;;;;;;4965034;28;20042;-58
2021/10/08 11:06:06;;;;;;;3.15;1.60;;;18.30;90.70;;;;;;4985926;28;20073;-58
2021/10/08 11:08:33;;;;;;;2.42;1.33;;;18.30;89.20;;;;;;4975574;28;20059;-58
2021/10/08 11:11:00;;;;;;;2.83;1.55;;;18.30;90.50;;;;;;4977682;28;20074;-59
2021/10/08 11:13:31;;;;;;;7.85;2.28;;;18.50;90.70;;;;;;4981750;28;20050;-59
2021/10/08 11:15:59;;;;;;;2.50;1.38;;;18.50;90.30;;;;;;4960129;28;20050;-59
2021/10/08 11:18:38;;;;;;;1.73;1.20;;;18.50;90.30;;;;;;4982901;28;20062;-59
2021/10/08 11:21:06;;;;;;;5.55;1.40;;;18.50;89.70;;;;;;4984311;28;20046;-59
2021/10/08 11:23:36;;;;;;;3.05;1.52;;;18.60;90.30;;;;;;4978929;28;20085;-59
2021/10/08 11:26:14;;;;;;;2.50;1.10;;;18.60;90.10;;;;;;4978143;28;20047;-58
2021/10/08 11:28:42;;;;;;;4.40;1.05;;;18.60;89.40;;;;;;4981415;28;20105;-59
2021/10/08 11:31:19;;;;;;;1.48;0.70;;;18.70;90.10;;;;;;4980990;28;20133;-59
2021/10/08 11:33:53;;;;;;;1.17;0.90;;;18.70;88.60;;;;;;4980135;28;20137;-59
2021/10/08 11:36:28;;;;;;;1.05;0.73;;;18.70;89.20;;;;;;4979564;28;20653;-60
2021/10/08 11:39:10;;;;;;;1.65;0.82;;;18.60;89.70;;;;;;4981356;28;20043;-59
2021/10/08 11:41:37;;;;;;;2.67;1.13;;;18.60;88.60;;;;;;4983295;28;20090;-59
2021/10/08 11:44:24;;;;;;;4.35;1.00;;;18.60;89.80;;;;;;4980124;28;20046;-59
2021/10/08 11:47:02;;;;;;;1.50;0.90;;;18.60;89.00;;;;;;4977236;28;20090;-59
2021/10/08 11:52:00;;;;;;;2.85;0.90;;;18.60;89.70;;;;;;4979490;28;20038;-59
2021/10/08 11:54:26;;;;;;;1.50;1.23;;;18.60;89.80;;;;;;4965195;28;20046;-60
2021/10/08 11:57:04;;;;;;;3.45;1.13;;;18.60;89.70;;;;;;4981906;28;20042;-60
2021/10/08 11:59:32;;;;;;;1.00;0.80;;;18.60;88.00;;;;;;4978565;28;20083;-60
2021/10/08 12:02:08;;;;;;;5.78;1.10;;;18.60;89.40;;;;;;4981926;28;20054;-59
2021/10/08 12:04:35;;;;;;;5.30;0.80;;;18.60;88.80;;;;;;4962478;28;20212;-60
2021/10/08 12:07:09;;;;;;;1.83;1.05;;;18.60;89.80;;;;;;4985579;28;20124;-60
2021/10/08 12:09:36;;;;;;;3.40;1.05;;;18.60;89.10;;;;;;4983334;28;20082;-59
2021/10/08 12:12:10;;;;;;;3.45;1.20;;;18.60;89.70;;;;;;4979993;28;20042;-60
2021/10/08 12:14:49;;;;;;;1.35;0.80;;;18.60;88.80;;;;;;4978324;28;20126;-60
2021/10/08 12:17:19;;;;;;;2.20;0.95;;;18.60;87.70;;;;;;4985884;28;20054;-57
2021/10/08 12:19:46;;;;;;;1.40;0.90;;;18.50;89.30;;;;;;4985649;28;20049;-59
2021/10/08 12:22:25;;;;;;;5.07;1.10;;;18.50;89.50;;;;;;4978380;28;20090;-58
2021/10/08 12:25:04;;;;;;;4.65;0.93;;;18.40;88.60;;;;;;4978072;28;20498;-58
2021/10/08 12:27:31;;;;;;;4.07;2.33;;;18.40;89.00;;;;;;4982031;28;20129;-59
2021/10/08 12:29:58;;;;;;;13.70;3.65;;;18.30;89.70;;;;;;4983214;28;20078;-58
2021/10/08 12:32:24;;;;;;;7.63;3.17;;;18.30;90.00;;;;;;4976655;28;20046;-59
2021/10/08 12:34:54;;;;;;;6.05;2.95;;;18.20;90.10;;;;;;4980281;28;20047;-58
2021/10/08 12:37:27;;;;;;;9.05;2.38;;;18.20;90.20;;;;;;4985765;28;20050;-61
2021/10/08 12:39:59;;;;;;;5.97;1.17;;;18.10;90.20;;;;;;4981639;28;20094;-57
2021/10/08 12:42:28;;;;;;;3.30;1.30;;;18.10;90.30;;;;;;4987521;28;20081;-58
2021/10/08 12:44:58;;;;;;;5.10;1.55;;;18.00;90.30;;;;;;4981106;28;20283;-57
2021/10/08 12:47:35;;;;;;;9.38;2.45;;;18.00;90.40;;;;;;4973762;28;20645;-60
2021/10/08 12:50:09;;;;;;;2.78;1.15;;;18.00;90.50;;;;;;4981692;28;20042;-59
2021/10/08 12:52:47;;;;;;;5.93;2.15;;;18.00;90.50;;;;;;4976011;28;20502;-60
2021/10/08 12:55:17;;;;;;;3.28;1.45;;;18.00;90.50;;;;;;4981318;28;20105;-59
2021/10/08 12:58:14;;;;;;;7.20;1.92;;;18.00;90.50;;;;;;4984770;28;20089;-60